createdAt,value
2023-01-06T00:00:33.643Z,101359.00
2023-01-06T00:03:00.441Z,101359.00
2023-01-06T00:05:29.087Z,101361.00
2023-01-06T00:07:55.919Z,101358.00
2023-01-06T00:10:23.177Z,101349.00
2023-01-06T00:12:50.475Z,101346.00
2023-01-06T00:15:18.063Z,101336.00
2023-01-06T00:17:45.782Z,101326.00
2023-01-06T00:20:13.008Z,101323.00
2023-01-06T00:22:40.851Z,101315.00
2023-01-06T00:25:10.188Z,101324.00
2023-01-06T00:27:37.709Z,101305.00
2023-01-06T00:30:05.460Z,101309.00
2023-01-06T00:32:32.300Z,101294.00
2023-01-06T00:34:59.184Z,101286.00
2023-01-06T00:37:26.004Z,101288.00
2023-01-06T00:39:52.829Z,101298.00
2023-01-06T00:42:19.604Z,101287.00
2023-01-06T00:44:46.377Z,101275.00
2023-01-06T00:47:14.186Z,101273.00
2023-01-06T00:49:41.119Z,101278.00
2023-01-06T00:52:07.889Z,101280.00
2023-01-06T00:54:36.658Z,101266.00
2023-01-06T00:57:05.493Z,101257.00
2023-01-06T00:59:32.269Z,101257.00
2023-01-06T01:01:59.307Z,101257.00
2023-01-06T01:04:26.525Z,101262.00
2023-01-06T01:06:53.863Z,101251.00
2023-01-06T01:09:31.350Z,101262.00
2023-01-06T01:12:11.582Z,101246.00
2023-01-06T01:14:47.299Z,101249.00
2023-01-06T01:17:19.948Z,101246.00
2023-01-06T01:19:47.358Z,101239.00
2023-01-06T01:22:14.472Z,101237.00
2023-01-06T01:24:41.565Z,101231.00
2023-01-06T01:27:08.932Z,101231.00
2023-01-06T01:29:35.672Z,101229.00
2023-01-06T01:32:02.491Z,101218.00
2023-01-06T01:34:29.281Z,101231.00
2023-01-06T01:36:56.740Z,101227.00
2023-01-06T01:39:26.636Z,101218.00
2023-01-06T01:41:55.052Z,101213.00
2023-01-06T01:44:49.687Z,101216.00
2023-01-06T01:47:24.381Z,101210.00
2023-01-06T01:49:53.705Z,101203.00
2023-01-06T01:52:21.625Z,101203.00
2023-01-06T01:54:49.622Z,101186.00
2023-01-06T01:57:23.588Z,101191.00
2023-01-06T01:59:51.150Z,101190.00
2023-01-06T02:02:18.712Z,101195.00
2023-01-06T02:04:54.586Z,101178.00
2023-01-06T02:07:23.194Z,101177.00
2023-01-06T02:10:22.026Z,101183.00
2023-01-06T02:12:53.957Z,101167.00
2023-01-06T02:15:31.726Z,101162.00
2023-01-06T02:18:26.965Z,101147.00
2023-01-06T02:21:18.845Z,101142.00
2023-01-06T02:24:13.613Z,101134.00
2023-01-06T02:26:43.223Z,101141.00
2023-01-06T02:29:09.937Z,101131.00
2023-01-06T02:31:39.670Z,101132.00
2023-01-06T02:34:27.112Z,101133.00
2023-01-06T02:37:06.108Z,101111.00
2023-01-06T02:39:43.094Z,101104.00
2023-01-06T02:42:22.352Z,101096.00
2023-01-06T02:45:08.428Z,101090.00
2023-01-06T02:47:54.444Z,101086.00
2023-01-06T02:50:53.490Z,101084.00
2023-01-06T02:53:33.880Z,101068.00
2023-01-06T02:56:01.231Z,101076.00
2023-01-06T02:58:49.595Z,101060.00
2023-01-06T03:01:30.860Z,101056.00
2023-01-06T03:03:59.104Z,101050.00
2023-01-06T03:06:29.762Z,101063.00
2023-01-06T03:08:57.014Z,101050.00
2023-01-06T03:11:26.365Z,101054.00
2023-01-06T03:13:58.076Z,101054.00
2023-01-06T03:16:25.014Z,101045.00
2023-01-06T03:18:52.294Z,101028.00
2023-01-06T03:21:25.385Z,101037.00
2023-01-06T03:23:52.604Z,101040.00
2023-01-06T03:26:19.483Z,101024.00
2023-01-06T03:28:46.374Z,101021.00
2023-01-06T03:31:55.681Z,101024.00
2023-01-06T03:34:25.377Z,101011.00
2023-01-06T03:36:59.065Z,100989.00
2023-01-06T03:40:05.183Z,100981.00
2023-01-06T03:42:58.993Z,100980.00
2023-01-06T03:45:50.820Z,100979.00
2023-01-06T03:48:35.978Z,100979.00
2023-01-06T03:51:23.938Z,100979.00
2023-01-06T03:54:03.372Z,100978.00
2023-01-06T03:56:36.575Z,100976.00
2023-01-06T03:59:06.526Z,100966.00
2023-01-06T04:01:33.954Z,100962.00
2023-01-06T04:04:01.392Z,100951.00
2023-01-06T04:06:28.217Z,100946.00
2023-01-06T04:08:54.981Z,100944.00
2023-01-06T04:11:40.300Z,100934.00
2023-01-06T04:14:07.076Z,100950.00
2023-01-06T04:16:33.866Z,100941.00
2023-01-06T04:19:00.716Z,100930.00
2023-01-06T04:21:27.462Z,100925.00
2023-01-06T04:23:54.213Z,100913.00
2023-01-06T04:26:20.994Z,100916.00
2023-01-06T04:28:47.735Z,100916.00
2023-01-06T04:31:14.548Z,100919.00
2023-01-06T04:33:41.287Z,100908.00
2023-01-06T04:36:08.983Z,100892.00
2023-01-06T04:38:36.011Z,100890.00
2023-01-06T04:41:02.973Z,100879.00
2023-01-06T04:43:29.776Z,100883.00
2023-01-06T04:45:59.789Z,100871.00
2023-01-06T04:48:26.561Z,100877.00
2023-01-06T04:51:06.149Z,100867.00
2023-01-06T04:53:40.906Z,100850.00
2023-01-06T04:56:11.366Z,100858.00
2023-01-06T04:58:38.670Z,100856.00
2023-01-06T05:01:08.615Z,100838.00
2023-01-06T05:03:36.163Z,100837.00
2023-01-06T05:06:10.012Z,100835.00
2023-01-06T05:08:41.120Z,100834.00
2023-01-06T05:11:10.862Z,100827.00
2023-01-06T05:13:38.038Z,100817.00
2023-01-06T05:16:25.746Z,100827.00
2023-01-06T05:18:53.030Z,100814.00
2023-01-06T05:21:19.960Z,100814.00
2023-01-06T05:23:46.998Z,100816.00
2023-01-06T05:26:17.996Z,100802.00
2023-01-06T05:28:44.770Z,100799.00
2023-01-06T05:31:12.088Z,100793.00
2023-01-06T05:33:39.263Z,100790.00
2023-01-06T05:36:08.224Z,100782.00
2023-01-06T05:38:35.034Z,100779.00
2023-01-06T05:41:01.995Z,100772.00
2023-01-06T05:43:29.428Z,100780.00
2023-01-06T05:45:56.471Z,100782.00
2023-01-06T05:48:27.803Z,100783.00
2023-01-06T05:51:01.987Z,100793.00
2023-01-06T05:53:31.495Z,100775.00
2023-01-06T05:56:08.634Z,100778.00
2023-01-06T05:58:36.664Z,100771.00
2023-01-06T06:01:04.697Z,100771.00
2023-01-06T06:03:32.510Z,100770.00
2023-01-06T06:06:06.543Z,100767.00
2023-01-06T06:08:33.693Z,100756.00
2023-01-06T06:11:05.237Z,100751.00
2023-01-06T06:13:32.489Z,100755.00
2023-01-06T06:16:10.847Z,100751.00
2023-01-06T06:18:42.657Z,100748.00
2023-01-06T06:21:17.577Z,100743.00
2023-01-06T06:23:44.690Z,100739.00
2023-01-06T06:26:11.788Z,100745.00
2023-01-06T06:28:39.474Z,100741.00
2023-01-06T06:31:07.871Z,100741.00
2023-01-06T06:33:35.004Z,100742.00
2023-01-06T06:36:02.289Z,100739.00
2023-01-06T06:38:29.086Z,100719.00
2023-01-06T06:40:55.972Z,100721.00
2023-01-06T06:43:22.843Z,100726.00
2023-01-06T06:45:49.758Z,100731.00
2023-01-06T06:48:16.927Z,100727.00
2023-01-06T06:50:43.849Z,100728.00
2023-01-06T06:53:10.675Z,100723.00
2023-01-06T06:55:37.490Z,100719.00
2023-01-06T06:58:04.293Z,100715.00
2023-01-06T07:00:31.055Z,100711.00
2023-01-06T07:02:57.795Z,100709.00
2023-01-06T07:05:25.671Z,100710.00
2023-01-06T07:07:52.537Z,100705.00
2023-01-06T07:10:19.352Z,100685.00
2023-01-06T07:12:46.147Z,100684.00
2023-01-06T07:15:12.953Z,100676.00
2023-01-06T07:17:41.681Z,100665.00
2023-01-06T07:20:09.379Z,100658.00
2023-01-06T07:22:40.120Z,100662.00
2023-01-06T07:25:08.911Z,100659.00
2023-01-06T07:27:36.022Z,100646.00
2023-01-06T07:30:04.661Z,100653.00
2023-01-06T07:32:31.421Z,100639.00
2023-01-06T07:34:58.180Z,100635.00
2023-01-06T07:37:24.950Z,100646.00
2023-01-06T07:39:51.668Z,100626.00
2023-01-06T07:42:18.440Z,100635.00
2023-01-06T07:44:45.192Z,100627.00
2023-01-06T07:47:11.963Z,100637.00
2023-01-06T07:49:38.791Z,100621.00
2023-01-06T07:52:05.667Z,100625.00
2023-01-06T07:54:32.608Z,100622.00
2023-01-06T07:56:59.394Z,100611.00
2023-01-06T07:59:26.179Z,100605.00
2023-01-06T08:01:53.108Z,100611.00
2023-01-06T08:04:20.018Z,100615.00
2023-01-06T08:06:46.772Z,100608.00
2023-01-06T08:09:13.623Z,100600.00
2023-01-06T08:11:40.392Z,100603.00
2023-01-06T08:14:07.171Z,100605.00
2023-01-06T08:16:33.964Z,100592.00
2023-01-06T08:19:00.714Z,100601.00
2023-01-06T08:21:27.527Z,100594.00
2023-01-06T08:23:54.268Z,100592.00
2023-01-06T08:26:21.137Z,100590.00
2023-01-06T08:28:48.172Z,100593.00
2023-01-06T08:31:17.821Z,100583.00
2023-01-06T08:33:44.908Z,100596.00
2023-01-06T08:36:16.799Z,100583.00
2023-01-06T08:38:43.829Z,100590.00
2023-01-06T08:41:11.060Z,100578.00
2023-01-06T08:43:41.255Z,100594.00
2023-01-06T08:46:09.515Z,100581.00
2023-01-06T08:48:36.551Z,100592.00
2023-01-06T08:51:05.154Z,100577.00
2023-01-06T08:53:32.995Z,100573.00
2023-01-06T08:55:59.893Z,100575.00
2023-01-06T08:58:26.964Z,100576.00
2023-01-06T09:00:53.766Z,100573.00
2023-01-06T09:03:20.683Z,100569.00
2023-01-06T09:05:55.074Z,100574.00
2023-01-06T09:08:22.004Z,100576.00
2023-01-06T09:10:48.934Z,100579.00
2023-01-06T09:13:15.824Z,100572.00
2023-01-06T09:15:43.286Z,100573.00
2023-01-06T09:18:10.413Z,100571.00
2023-01-06T09:20:37.950Z,100572.00
2023-01-06T09:23:04.980Z,100577.00
2023-01-06T09:25:31.849Z,100573.00
2023-01-06T09:28:01.354Z,100565.00
2023-01-06T09:30:28.158Z,100552.00
2023-01-06T09:32:55.035Z,100551.00
2023-01-06T09:35:21.807Z,100565.00
2023-01-06T09:37:49.118Z,100561.00
2023-01-06T09:40:19.659Z,100570.00
2023-01-06T09:42:58.457Z,100570.00
2023-01-06T09:45:39.836Z,100568.00
2023-01-06T09:48:09.052Z,100568.00
2023-01-06T09:50:44.628Z,100573.00
2023-01-06T09:53:36.920Z,100564.00
2023-01-06T09:56:10.746Z,100570.00
2023-01-06T09:58:42.020Z,100575.00
2023-01-06T10:01:17.063Z,100563.00
2023-01-06T10:03:48.100Z,100581.00
2023-01-06T10:06:37.485Z,100586.00
2023-01-06T10:09:29.159Z,100597.00
2023-01-06T10:12:00.132Z,100596.00
2023-01-06T10:14:39.023Z,100602.00
2023-01-06T10:17:30.124Z,100606.00
2023-01-06T10:20:34.087Z,100619.00
2023-01-06T10:23:28.197Z,100626.00
2023-01-06T10:25:59.197Z,100624.00
2023-01-06T10:28:35.223Z,100637.00
2023-01-06T10:31:05.908Z,100642.00
2023-01-06T10:33:44.107Z,100650.00
2023-01-06T10:36:15.203Z,100667.00
2023-01-06T10:38:50.970Z,100672.00
2023-01-06T10:41:36.719Z,100658.00
2023-01-06T10:44:03.596Z,100659.00
2023-01-06T10:46:35.424Z,100668.00
2023-01-06T10:49:03.244Z,100677.00
2023-01-06T10:51:35.652Z,100670.00
2023-01-06T10:54:18.605Z,100679.00
2023-01-06T10:56:59.538Z,100665.00
2023-01-06T10:59:26.346Z,100656.00
2023-01-06T11:01:55.896Z,100669.00
2023-01-06T11:04:24.104Z,100662.00
2023-01-06T11:06:56.290Z,100657.00
2023-01-06T11:09:23.218Z,100667.00
2023-01-06T11:11:50.508Z,100666.00
2023-01-06T11:14:19.521Z,100673.00
2023-01-06T11:16:57.952Z,100676.00
2023-01-06T11:19:41.340Z,100667.00
2023-01-06T11:22:35.846Z,100665.00
2023-01-06T11:25:04.703Z,100684.00
2023-01-06T11:27:31.501Z,100672.00
2023-01-06T11:29:58.316Z,100670.00
2023-01-06T11:32:27.538Z,100661.00
2023-01-06T11:35:03.167Z,100672.00
2023-01-06T11:37:41.210Z,100676.00
2023-01-06T11:40:34.639Z,100655.00
2023-01-06T11:43:10.168Z,100665.00
2023-01-06T11:45:42.607Z,100674.00
2023-01-06T11:48:18.567Z,100689.00
2023-01-06T11:50:57.274Z,100678.00
2023-01-06T11:53:26.968Z,100666.00
2023-01-06T11:56:04.349Z,100651.00
2023-01-06T11:58:56.148Z,100656.00
2023-01-06T12:01:28.166Z,100655.00
2023-01-06T12:04:02.055Z,100658.00
2023-01-06T12:06:37.237Z,100669.00
2023-01-06T12:09:23.956Z,100673.00
2023-01-06T12:11:53.297Z,100673.00
2023-01-06T12:14:28.893Z,100676.00
2023-01-06T12:17:25.611Z,100699.00
2023-01-06T12:20:01.682Z,100693.00
2023-01-06T12:22:47.051Z,100696.00
2023-01-06T12:25:27.459Z,100702.00
2023-01-06T12:28:14.427Z,100710.00
2023-01-06T12:30:46.741Z,100710.00
2023-01-06T12:33:38.195Z,100695.00
2023-01-06T12:36:12.124Z,100698.00
2023-01-06T12:38:58.508Z,100698.00
2023-01-06T12:41:33.610Z,100699.00
2023-01-06T12:44:19.742Z,100713.00
2023-01-06T12:47:02.132Z,100714.00
2023-01-06T12:49:48.037Z,100697.00
2023-01-06T12:52:19.353Z,100688.00
2023-01-06T12:54:55.604Z,100690.00
2023-01-06T12:57:34.855Z,100704.00
2023-01-06T13:00:23.586Z,100696.00
2023-01-06T13:03:03.407Z,100710.00
2023-01-06T13:05:52.741Z,100732.00
2023-01-06T13:08:30.585Z,100740.00
2023-01-06T13:11:20.228Z,100746.00
2023-01-06T13:13:53.240Z,100757.00
2023-01-06T13:16:36.802Z,100744.00
2023-01-06T13:19:30.937Z,100750.00
2023-01-06T13:22:00.122Z,100749.00
2023-01-06T13:24:50.276Z,100750.00
2023-01-06T13:27:20.023Z,100761.00
2023-01-06T13:29:56.047Z,100757.00
2023-01-06T13:32:47.746Z,100768.00
2023-01-06T13:35:27.519Z,100770.00
2023-01-06T13:37:57.311Z,100769.00
2023-01-06T13:40:27.255Z,100764.00
2023-01-06T13:42:57.925Z,100773.00
2023-01-06T13:45:38.799Z,100776.00
2023-01-06T13:48:08.995Z,100792.00
2023-01-06T13:50:39.266Z,100796.00
2023-01-06T13:53:06.614Z,100786.00
2023-01-06T13:55:38.994Z,100784.00
2023-01-06T13:58:24.243Z,100792.00
2023-01-06T14:01:23.521Z,100796.00
2023-01-06T14:03:51.582Z,100795.00
2023-01-06T14:06:24.445Z,100800.00
2023-01-06T14:08:58.679Z,100822.00
2023-01-06T14:11:38.387Z,100829.00
2023-01-06T14:14:07.862Z,100816.00
2023-01-06T14:16:46.863Z,100827.00
2023-01-06T14:19:26.997Z,100814.00
2023-01-06T14:21:56.084Z,100831.00
2023-01-06T14:24:31.938Z,100837.00
2023-01-06T14:27:04.412Z,100839.00
2023-01-06T14:29:43.386Z,100832.00
2023-01-06T14:32:19.177Z,100835.00
2023-01-06T14:35:01.700Z,100832.00
2023-01-06T14:37:36.724Z,100833.00
2023-01-06T14:40:04.575Z,100854.00
2023-01-06T14:42:41.799Z,100853.00
2023-01-06T14:45:39.344Z,100859.00
2023-01-06T14:48:10.386Z,100863.00
2023-01-06T14:50:46.893Z,100877.00
2023-01-06T14:53:27.767Z,100873.00
2023-01-06T14:55:55.307Z,100867.00
2023-01-06T14:58:32.715Z,100871.00
2023-01-06T15:01:00.119Z,100876.00
2023-01-06T15:03:28.642Z,100884.00
2023-01-06T15:06:32.294Z,100880.00
2023-01-06T15:09:18.031Z,100899.00
2023-01-06T15:11:45.391Z,100867.00
2023-01-06T15:14:25.533Z,100877.00
2023-01-06T15:16:53.188Z,100877.00
2023-01-06T15:19:20.212Z,100876.00
2023-01-06T15:21:47.543Z,100882.00
2023-01-06T15:24:20.885Z,100885.00
2023-01-06T15:26:48.601Z,100881.00
2023-01-06T15:29:20.939Z,100884.00
2023-01-06T15:31:49.433Z,100875.00
2023-01-06T15:34:21.798Z,100899.00
2023-01-06T15:36:50.627Z,100896.00
2023-01-06T15:39:23.774Z,100903.00
2023-01-06T15:41:50.751Z,100907.00
2023-01-06T15:44:30.689Z,100915.00
2023-01-06T15:47:42.393Z,100917.00
2023-01-06T15:50:16.224Z,100911.00
2023-01-06T15:52:48.857Z,100903.00
2023-01-06T15:55:26.723Z,100914.00
2023-01-06T15:58:00.926Z,100918.00
2023-01-06T16:00:44.337Z,100930.00
2023-01-06T16:03:20.491Z,100923.00
2023-01-06T16:05:51.111Z,100911.00
2023-01-06T16:08:27.622Z,100923.00
2023-01-06T16:11:15.726Z,100924.00
2023-01-06T16:13:48.535Z,100928.00
2023-01-06T16:16:15.328Z,100934.00
2023-01-06T16:18:43.013Z,100943.00
2023-01-06T16:21:22.171Z,100938.00
2023-01-06T16:23:56.440Z,100938.00
2023-01-06T16:26:25.889Z,100930.00
2023-01-06T16:28:55.014Z,100936.00
2023-01-06T16:31:36.717Z,100938.00
2023-01-06T16:34:21.875Z,100928.00
2023-01-06T16:36:49.363Z,100926.00
2023-01-06T16:39:16.154Z,100929.00
2023-01-06T16:42:32.181Z,100931.00
2023-01-06T16:45:05.939Z,100927.00
2023-01-06T16:47:32.801Z,100941.00
2023-01-06T16:50:10.353Z,100930.00
2023-01-06T16:52:37.173Z,100948.00
2023-01-06T16:55:12.217Z,100950.00
2023-01-06T16:57:39.012Z,100963.00
2023-01-06T17:00:11.505Z,100965.00
2023-01-06T17:02:38.479Z,100959.00
2023-01-06T17:05:16.282Z,100963.00
2023-01-06T17:07:43.239Z,100972.00
2023-01-06T17:10:15.132Z,100982.00
2023-01-06T17:13:00.626Z,100978.00
2023-01-06T17:15:27.428Z,100973.00
2023-01-06T17:17:54.285Z,100977.00
2023-01-06T17:20:21.116Z,100982.00
2023-01-06T17:22:50.343Z,100973.00
2023-01-06T17:25:17.348Z,100974.00
2023-01-06T17:27:45.476Z,100981.00
2023-01-06T17:30:26.439Z,100972.00
2023-01-06T17:32:56.452Z,100976.00
2023-01-06T17:35:29.332Z,100983.00
2023-01-06T17:37:58.938Z,100989.00
2023-01-06T17:40:33.673Z,101002.00
2023-01-06T17:43:25.135Z,100998.00
2023-01-06T17:45:52.179Z,101002.00
2023-01-06T17:48:19.151Z,101005.00
2023-01-06T17:50:55.620Z,101006.00
2023-01-06T17:53:48.603Z,101001.00
2023-01-06T17:56:15.720Z,101014.00
2023-01-06T17:58:44.377Z,101012.00
2023-01-06T18:01:23.889Z,101018.00
2023-01-06T18:03:51.992Z,101018.00
2023-01-06T18:06:26.324Z,101009.00
2023-01-06T18:09:10.473Z,101021.00
2023-01-06T18:11:41.215Z,101025.00
2023-01-06T18:14:18.492Z,101021.00
2023-01-06T18:16:47.142Z,101031.00
2023-01-06T18:19:23.204Z,101035.00
2023-01-06T18:21:50.107Z,101036.00
2023-01-06T18:24:19.662Z,101027.00
2023-01-06T18:26:59.489Z,101038.00
2023-01-06T18:29:36.585Z,101039.00
2023-01-06T18:32:26.996Z,101048.00
2023-01-06T18:35:02.453Z,101047.00
2023-01-06T18:37:35.269Z,101054.00
2023-01-06T18:40:08.292Z,101064.00
2023-01-06T18:42:36.981Z,101060.00
2023-01-06T18:45:20.194Z,101059.00
2023-01-06T18:47:59.208Z,101062.00
2023-01-06T18:50:36.964Z,101078.00
2023-01-06T18:53:26.858Z,101072.00
2023-01-06T18:56:04.904Z,101066.00
2023-01-06T18:58:50.132Z,101081.00
2023-01-06T19:01:27.445Z,101078.00
2023-01-06T19:04:28.840Z,101078.00
2023-01-06T19:07:09.466Z,101070.00
2023-01-06T19:09:47.685Z,101078.00
2023-01-06T19:12:30.331Z,101077.00
2023-01-06T19:15:15.289Z,101058.00
2023-01-06T19:17:42.385Z,101072.00
2023-01-06T19:20:15.647Z,101072.00
2023-01-06T19:22:42.805Z,101074.00
2023-01-06T19:25:24.986Z,101064.00
2023-01-06T19:27:55.964Z,101063.00
2023-01-06T19:30:38.786Z,101069.00
2023-01-06T19:33:24.348Z,101085.00
2023-01-06T19:35:56.571Z,101075.00
2023-01-06T19:38:31.369Z,101072.00
2023-01-06T19:41:00.044Z,101084.00
2023-01-06T19:43:32.479Z,101081.00
2023-01-06T19:46:22.665Z,101080.00
2023-01-06T19:48:50.335Z,101066.00
2023-01-06T19:51:34.453Z,101079.00
2023-01-06T19:54:10.735Z,101085.00
2023-01-06T19:56:45.923Z,101081.00
2023-01-06T19:59:21.573Z,101100.00
2023-01-06T20:01:52.242Z,101088.00
2023-01-06T20:04:23.887Z,101100.00
2023-01-06T20:06:51.067Z,101100.00
2023-01-06T20:09:18.216Z,101088.00
2023-01-06T20:11:48.213Z,101094.00
2023-01-06T20:14:15.178Z,101105.00
2023-01-06T20:16:46.235Z,101100.00
2023-01-06T20:19:13.789Z,101103.00
2023-01-06T20:21:41.073Z,101103.00
2023-01-06T20:24:08.296Z,101106.00
2023-01-06T20:26:35.552Z,101110.00
2023-01-06T20:29:04.425Z,101100.00
2023-01-06T20:31:31.429Z,101107.00
2023-01-06T20:33:58.343Z,101114.00
2023-01-06T20:36:25.257Z,101116.00
2023-01-06T20:38:52.169Z,101124.00
2023-01-06T20:41:19.365Z,101107.00
2023-01-06T20:43:46.274Z,101105.00
2023-01-06T20:46:14.532Z,101089.00
2023-01-06T20:48:41.503Z,101109.00
2023-01-06T20:51:08.853Z,101109.00
2023-01-06T20:53:36.866Z,101119.00
2023-01-06T20:56:03.811Z,101114.00
2023-01-06T20:58:30.799Z,101118.00
2023-01-06T21:00:57.651Z,101125.00
2023-01-06T21:03:24.536Z,101125.00
2023-01-06T21:05:51.385Z,101123.00
2023-01-06T21:08:18.221Z,101129.00
2023-01-06T21:10:45.014Z,101130.00
2023-01-06T21:13:11.796Z,101139.00
2023-01-06T21:15:38.615Z,101146.00
2023-01-06T21:18:05.583Z,101146.00
2023-01-06T21:20:32.391Z,101155.00
2023-01-06T21:22:59.227Z,101150.00
2023-01-06T21:25:26.025Z,101140.00
2023-01-06T21:27:52.863Z,101157.00
2023-01-06T21:30:20.015Z,101142.00
2023-01-06T21:32:46.863Z,101146.00
2023-01-06T21:35:13.739Z,101143.00
2023-01-06T21:37:40.534Z,101144.00
2023-01-06T21:40:08.965Z,101134.00
2023-01-06T21:42:54.210Z,101136.00
2023-01-06T21:45:21.012Z,101144.00
2023-01-06T21:47:47.807Z,101139.00
2023-01-06T21:50:14.625Z,101152.00
2023-01-06T21:52:41.454Z,101141.00
2023-01-06T21:55:08.892Z,101144.00
2023-01-06T21:57:36.152Z,101158.00
2023-01-06T22:00:05.000Z,101152.00
2023-01-06T22:02:31.940Z,101142.00
2023-01-06T22:04:58.757Z,101136.00
2023-01-06T22:07:25.576Z,101144.00
2023-01-06T22:09:53.095Z,101144.00
2023-01-06T22:12:20.439Z,101146.00
2023-01-06T22:14:50.272Z,101153.00
2023-01-06T22:17:17.720Z,101149.00
2023-01-06T22:19:45.972Z,101162.00
2023-01-06T22:22:13.336Z,101170.00
2023-01-06T22:24:40.620Z,101167.00
2023-01-06T22:27:07.407Z,101151.00
2023-01-06T22:29:34.160Z,101157.00
2023-01-06T22:32:05.036Z,101158.00
2023-01-06T22:34:32.117Z,101159.00
2023-01-06T22:36:58.956Z,101152.00
2023-01-06T22:39:25.783Z,101163.00
2023-01-06T22:41:53.912Z,101163.00
2023-01-06T22:44:20.963Z,101164.00
2023-01-06T22:46:47.790Z,101174.00
2023-01-06T22:49:15.062Z,101167.00
2023-01-06T22:51:41.970Z,101165.00
2023-01-06T22:54:08.760Z,101177.00
2023-01-06T22:56:35.697Z,101176.00
2023-01-06T22:59:02.996Z,101177.00
2023-01-06T23:01:29.899Z,101162.00
2023-01-06T23:03:56.761Z,101174.00
2023-01-06T23:06:23.533Z,101174.00
2023-01-06T23:09:00.289Z,101182.00
2023-01-06T23:11:28.527Z,101172.00
2023-01-06T23:13:57.531Z,101171.00
2023-01-06T23:16:26.388Z,101168.00
2023-01-06T23:18:53.598Z,101178.00
2023-01-06T23:21:22.480Z,101177.00
2023-01-06T23:23:50.133Z,101177.00
2023-01-06T23:26:19.209Z,101180.00
2023-01-06T23:28:46.508Z,101174.00
2023-01-06T23:31:14.887Z,101188.00
2023-01-06T23:33:44.005Z,101191.00
2023-01-06T23:36:12.708Z,101180.00
2023-01-06T23:38:39.733Z,101169.00
2023-01-06T23:41:12.439Z,101179.00
2023-01-06T23:43:39.855Z,101176.00
2023-01-06T23:46:09.294Z,101165.00
2023-01-06T23:48:36.250Z,101170.00
2023-01-06T23:51:03.979Z,101155.00
2023-01-06T23:53:31.274Z,101172.00
2023-01-06T23:56:06.304Z,101156.00
2023-01-06T23:58:38.559Z,101165.00
